Time;durP1;ratioP1;P1;durP2;ratioP2;P2;SDS_P1;SDS_P2;PMS_P1;PMS_P2;Temp;Humidity;BMP_temperature;BMP_pressure;BME280_temperature;BME280_humidity;BME280_pressure;Samples;Min_cycle;Max_cycle;Signal;HPM_P1;HPM_P2
2022/03/26 00:05:15;;;;;;;19.97;12.60;;;11.50;45.50;11.60;97361.00;;;;5048553;28;20224;-87
2022/03/26 00:07:44;;;;;;;20.10;12.13;;;11.40;45.70;11.60;97361.00;;;;5050241;28;20207;-87
2022/03/26 00:10:13;;;;;;;16.60;11.43;;;11.50;45.80;11.50;97368.00;;;;5048397;28;20201;-87
2022/03/26 00:12:41;;;;;;;19.80;12.27;;;11.50;46.00;11.50;97360.00;;;;5044345;28;20229;-87
2022/03/26 00:15:15;;;;;;;18.83;12.47;;;11.40;46.10;11.40;97361.00;;;;5031024;28;20229;-87
2022/03/26 00:17:42;;;;;;;19.30;13.20;;;11.30;46.10;11.40;97368.00;;;;5047012;28;20275;-87
2022/03/26 00:20:10;;;;;;;24.00;12.43;;;11.30;46.20;11.40;97366.00;;;;5053990;28;20319;-88
2022/03/26 00:22:39;;;;;;;16.63;11.80;;;11.20;46.20;11.30;97364.00;;;;5055212;28;20238;-87
2022/03/26 00:25:07;;;;;;;20.23;12.40;;;11.20;46.40;11.30;97372.00;;;;5053691;28;20312;-87
2022/03/26 00:27:34;;;;;;;21.57;12.50;;;11.20;46.50;11.30;97367.00;;;;5053265;28;20195;-87
2022/03/26 00:30:03;;;;;;;19.73;12.23;;;11.30;46.60;11.30;97369.00;;;;5054596;28;20205;-87
2022/03/26 00:32:33;;;;;;;18.83;12.07;;;11.10;46.50;11.30;97369.00;;;;5034794;28;20653;-86
2022/03/26 00:35:04;;;;;;;19.43;12.93;;;11.10;46.70;11.30;97379.00;;;;5042466;28;20730;-87
2022/03/26 00:37:34;;;;;;;20.33;13.30;;;11.10;46.70;11.30;97378.00;;;;5053704;28;20673;-88
2022/03/26 00:40:03;;;;;;;21.73;13.50;;;11.10;46.90;11.30;97376.00;;;;5054997;28;20200;-90
2022/03/26 00:42:30;;;;;;;19.43;12.10;;;11.10;46.90;11.20;97379.00;;;;5055150;28;20291;-87
2022/03/26 00:44:57;;;;;;;20.40;13.27;;;11.10;46.70;11.20;97379.00;;;;5047275;28;20308;-89
2022/03/26 00:47:24;;;;;;;20.53;13.20;;;11.10;46.70;11.20;97386.00;;;;5031364;28;20207;-87
2022/03/26 00:49:52;;;;;;;21.00;13.63;;;11.00;46.70;11.20;97385.00;;;;5030648;28;20212;-89
2022/03/26 00:52:19;;;;;;;20.53;13.30;;;11.00;46.90;11.20;97389.00;;;;5031345;28;20387;-87
2022/03/26 00:54:47;;;;;;;19.40;13.13;;;10.90;46.80;11.10;97384.00;;;;5030694;28;20253;-86
2022/03/26 00:57:16;;;;;;;19.10;12.30;;;11.00;46.80;11.10;97381.00;;;;5034574;28;20222;-88
2022/03/26 00:59:44;;;;;;;22.60;12.80;;;11.00;46.90;11.10;97371.00;;;;5048376;28;20263;-85
2022/03/26 01:02:12;;;;;;;20.10;12.27;;;11.00;46.90;11.10;97380.00;;;;5052401;28;20219;-85
2022/03/26 01:04:39;;;;;;;20.77;13.10;;;10.90;47.30;11.10;97383.00;;;;5053691;28;20285;-86
2022/03/26 01:07:07;;;;;;;25.80;14.33;;;11.00;46.90;11.10;97374.00;;;;5049260;28;20231;-86
2022/03/26 01:09:34;;;;;;;22.47;12.97;;;11.00;47.00;11.10;97368.00;;;;5055165;28;20201;-89
2022/03/26 01:12:02;;;;;;;21.43;13.77;;;10.90;47.00;11.10;97368.00;;;;5055640;28;20204;-85
2022/03/26 01:14:30;;;;;;;21.80;12.80;;;10.90;47.00;11.10;97372.00;;;;5052898;28;20251;-85
2022/03/26 01:16:58;;;;;;;20.43;13.67;;;11.00;47.10;11.10;97374.00;;;;5055602;28;20226;-86
2022/03/26 01:19:25;;;;;;;21.23;12.57;;;10.90;47.10;11.00;97375.00;;;;5058264;28;20576;-86
2022/03/26 01:21:52;;;;;;;20.80;12.97;;;10.90;47.10;11.00;97379.00;;;;5053840;28;20224;-86
2022/03/26 01:24:19;;;;;;;20.93;12.50;;;10.80;47.00;11.00;97383.00;;;;5053524;28;20219;-86
2022/03/26 01:26:46;;;;;;;23.83;12.90;;;10.80;47.00;11.00;97379.00;;;;5053488;28;20288;-85
2022/03/26 01:29:14;;;;;;;21.60;14.03;;;10.80;47.10;10.90;97383.00;;;;5051635;28;20228;-86
2022/03/26 01:31:42;;;;;;;23.17;13.17;;;10.80;47.20;11.00;97381.00;;;;5041677;28;20197;-88
2022/03/26 01:34:09;;;;;;;24.97;13.77;;;10.80;47.20;10.90;97378.00;;;;5052966;28;20712;-87
2022/03/26 01:36:38;;;;;;;21.93;12.63;;;10.70;47.20;10.90;97384.00;;;;5047366;28;20832;-87
2022/03/26 01:39:05;;;;;;;21.70;12.37;;;10.80;47.20;10.90;97380.00;;;;5042358;28;20193;-89
2022/03/26 01:41:35;;;;;;;25.00;14.63;;;10.70;47.10;10.90;97386.00;;;;5053784;28;20239;-87
2022/03/26 01:44:02;;;;;;;21.93;13.13;;;10.70;47.20;10.90;97383.00;;;;5053798;28;20560;-87
2022/03/26 01:46:47;;;;;;;21.97;13.43;;;10.70;47.10;10.90;97379.00;;;;5058775;28;21280;-87
2022/03/26 01:49:15;;;;;;;22.03;12.53;;;10.70;47.40;10.90;97372.00;;;;5055036;28;20638;-86
2022/03/26 01:51:42;;;;;;;22.30;13.47;;;10.70;47.20;10.90;97374.00;;;;5062769;28;20196;-86
2022/03/26 01:54:11;;;;;;;20.60;13.27;;;10.70;47.20;10.90;97362.00;;;;5060821;28;20235;-87
2022/03/26 01:56:40;;;;;;;20.77;13.07;;;10.70;47.30;10.90;97372.00;;;;5069585;28;20585;-87
2022/03/26 01:59:08;;;;;;;19.60;12.33;;;10.70;47.40;10.90;97368.00;;;;5050809;28;20220;-86
2022/03/26 02:01:37;;;;;;;21.03;12.63;;;10.70;47.50;10.80;97363.00;;;;5050089;28;20235;-87
2022/03/26 02:04:09;;;;;;;21.20;13.27;;;10.60;47.70;10.80;97368.00;;;;5051763;28;20224;-88
2022/03/26 02:06:40;;;;;;;20.90;12.93;;;10.60;47.80;10.80;97364.00;;;;5050873;28;20203;-88
2022/03/26 02:09:13;;;;;;;21.70;13.03;;;10.70;47.70;10.70;97363.00;;;;5049817;28;20193;-86
2022/03/26 02:11:43;;;;;;;22.23;13.23;;;10.60;47.80;10.70;97371.00;;;;5050725;28;20880;-87
2022/03/26 02:14:12;;;;;;;19.43;12.80;;;10.50;47.80;10.70;97362.00;;;;5053181;28;20304;-88
2022/03/26 02:16:42;;;;;;;21.63;13.03;;;10.50;47.70;10.60;97368.00;;;;5052686;28;20205;-88
2022/03/26 02:19:12;;;;;;;22.07;12.57;;;10.50;47.70;10.60;97361.00;;;;5053166;28;20266;-86
2022/03/26 02:21:41;;;;;;;18.37;12.53;;;10.50;47.80;10.60;97364.00;;;;5051143;28;20307;-86
2022/03/26 02:24:09;;;;;;;22.23;13.90;;;10.30;47.80;10.50;97367.00;;;;5050455;28;20279;-86
2022/03/26 02:26:38;;;;;;;20.67;13.43;;;10.40;47.90;10.50;97370.00;;;;5051588;28;20200;-87
2022/03/26 02:29:10;;;;;;;21.80;13.80;;;10.40;47.90;10.50;97375.00;;;;5051491;28;20291;-86
2022/03/26 02:31:39;;;;;;;21.30;13.43;;;10.40;48.00;10.50;97369.00;;;;5048276;28;20246;-85
2022/03/26 02:34:08;;;;;;;20.47;13.63;;;10.30;48.00;10.40;97365.00;;;;5051830;28;20664;-86
2022/03/26 02:36:35;;;;;;;22.77;13.70;;;10.30;48.10;10.40;97363.00;;;;5047109;28;20295;-86
2022/03/26 02:39:07;;;;;;;23.17;14.00;;;10.30;48.10;10.40;97364.00;;;;5050572;28;20203;-89
2022/03/26 02:41:34;;;;;;;22.90;13.57;;;10.30;48.20;10.40;97373.00;;;;5052947;28;20224;-86
2022/03/26 02:44:01;;;;;;;22.07;13.00;;;10.20;48.00;10.40;97377.00;;;;5052460;28;20303;-88
2022/03/26 02:46:28;;;;;;;21.90;13.70;;;10.20;48.00;10.30;97382.00;;;;5053437;28;20550;-88
2022/03/26 02:48:56;;;;;;;21.27;12.90;;;10.30;48.10;10.30;97379.00;;;;5050387;28;20254;-87
2022/03/26 02:51:28;;;;;;;22.13;13.23;;;10.20;48.10;10.30;97360.00;;;;5051908;28;20201;-88
2022/03/26 02:53:56;;;;;;;22.47;13.97;;;10.20;48.20;10.30;97368.00;;;;5052576;28;20270;-86
2022/03/26 02:56:25;;;;;;;19.00;12.40;;;11.20;48.70;10.30;97372.00;;;;5035373;28;20280;-87
2022/03/26 02:58:52;;;;;;;21.47;13.47;;;10.20;48.20;10.30;97365.00;;;;5031971;28;20197;-86
2022/03/26 03:01:20;;;;;;;22.57;13.23;;;10.10;48.20;10.20;97367.00;;;;5046880;28;20252;-86
2022/03/26 03:03:47;;;;;;;20.07;12.13;;;10.10;48.20;10.20;97368.00;;;;5051643;28;20202;-89
2022/03/26 03:06:14;;;;;;;20.40;12.90;;;10.10;48.20;10.20;97370.00;;;;5052305;28;20197;-86
2022/03/26 03:08:41;;;;;;;21.03;12.57;;;10.10;48.20;10.20;97373.00;;;;5051715;28;20300;-88
2022/03/26 03:11:08;;;;;;;19.27;12.80;;;10.00;48.30;10.10;97367.00;;;;5050361;28;20226;-86
2022/03/26 03:13:39;;;;;;;22.73;13.33;;;10.00;48.40;10.10;97371.00;;;;5051596;28;20203;-86
2022/03/26 03:16:06;;;;;;;19.60;13.17;;;10.00;48.60;10.10;97379.00;;;;5051456;28;20619;-86
2022/03/26 03:18:33;;;;;;;21.07;13.40;;;10.00;48.70;10.10;97373.00;;;;5037570;28;20674;-88
2022/03/26 03:21:00;;;;;;;21.27;13.33;;;10.00;48.70;10.00;97370.00;;;;5051174;28;20713;-86
2022/03/26 03:23:27;;;;;;;21.00;12.50;;;9.90;48.70;10.00;97365.00;;;;5051081;28;20203;-89
2022/03/26 03:25:54;;;;;;;20.70;13.80;;;9.90;48.80;10.00;97363.00;;;;5051674;28;20216;-86
2022/03/26 03:28:22;;;;;;;21.50;13.83;;;9.90;48.90;10.00;97374.00;;;;5051961;28;20221;-88
2022/03/26 03:30:50;;;;;;;19.83;13.00;;;9.90;49.00;10.00;97358.00;;;;5052336;28;20215;-86
2022/03/26 03:33:17;;;;;;;21.60;14.37;;;9.90;49.10;9.90;97371.00;;;;5052444;28;20205;-87
2022/03/26 03:35:45;;;;;;;20.80;13.83;;;9.80;49.20;9.90;97373.00;;;;5051127;28;20295;-86
2022/03/26 03:38:12;;;;;;;20.80;13.13;;;9.80;49.20;9.80;97361.00;;;;5045737;28;20632;-90
2022/03/26 03:40:39;;;;;;;19.47;12.77;;;9.60;49.20;9.80;97364.00;;;;5052034;28;20284;-86
2022/03/26 03:43:07;;;;;;;19.90;13.97;;;9.70;49.20;9.70;97354.00;;;;5052909;28;20230;-87
2022/03/26 03:45:35;;;;;;;21.07;12.93;;;9.70;49.20;9.70;97357.00;;;;5051957;28;20330;-86
2022/03/26 03:48:04;;;;;;;22.10;13.20;;;9.60;49.20;9.60;97354.00;;;;5051817;28;20460;-86
2022/03/26 03:50:34;;;;;;;20.20;13.73;;;9.60;49.40;9.60;97367.00;;;;5044902;28;20606;-86
2022/03/26 03:53:01;;;;;;;19.63;13.57;;;9.60;49.60;9.60;97371.00;;;;5054273;28;20192;-86
2022/03/26 03:55:28;;;;;;;24.23;14.97;;;9.50;49.50;9.50;97361.00;;;;5056146;28;20682;-87
2022/03/26 03:57:56;;;;;;;20.13;13.77;;;9.50;49.60;9.40;97371.00;;;;5054585;28;20208;-86
2022/03/26 04:00:24;;;;;;;20.17;12.80;;;9.50;49.50;9.40;97362.00;;;;5047635;28;20219;-87
2022/03/26 04:02:53;;;;;;;18.33;13.07;;;9.40;49.60;9.30;97367.00;;;;5035341;28;20689;-86
2022/03/26 04:05:22;;;;;;;21.67;13.40;;;9.40;49.50;9.30;97373.00;;;;5052465;28;20222;-86
2022/03/26 04:07:49;;;;;;;20.10;13.17;;;9.30;49.50;9.20;97362.00;;;;5052492;28;20205;-87
2022/03/26 04:10:16;;;;;;;21.23;13.87;;;9.20;49.60;9.10;97361.00;;;;5054117;28;20231;-86
2022/03/26 04:12:45;;;;;;;19.30;12.60;;;9.10;49.60;9.10;97356.00;;;;5053609;28;20619;-86
2022/03/26 04:15:15;;;;;;;19.80;13.40;;;9.10;49.80;9.10;97353.00;;;;5053590;28;20308;-86
2022/03/26 04:17:42;;;;;;;20.17;12.73;;;9.10;49.90;9.00;97351.00;;;;5059117;28;20224;-86
2022/03/26 04:20:10;;;;;;;19.63;13.10;;;9.00;49.90;9.00;97360.00;;;;5041004;28;20217;-88
2022/03/26 04:22:40;;;;;;;19.47;12.90;;;9.00;50.10;9.00;97357.00;;;;5042195;28;20213;-87
2022/03/26 04:25:09;;;;;;;20.67;13.47;;;8.90;50.30;8.90;97354.00;;;;5054649;28;20212;-88
2022/03/26 04:27:37;;;;;;;21.73;13.60;;;8.90;50.40;8.90;97354.00;;;;5053893;28;20646;-86
2022/03/26 04:30:06;;;;;;;20.83;13.00;;;8.90;50.50;8.90;97357.00;;;;5053781;28;20303;-86
2022/03/26 04:32:33;;;;;;;22.03;13.67;;;8.90;50.50;8.80;97364.00;;;;5055034;28;20196;-86
2022/03/26 04:35:00;;;;;;;22.37;13.67;;;8.90;50.60;8.80;97357.00;;;;5054538;28;20220;-87
2022/03/26 04:37:28;;;;;;;20.20;13.70;;;8.80;50.60;8.80;97367.00;;;;5042267;28;20244;-86
2022/03/26 04:39:56;;;;;;;19.53;12.50;;;8.80;51.20;8.80;97364.00;;;;5035430;28;20199;-86
2022/03/26 04:42:23;;;;;;;19.37;13.57;;;8.80;50.70;8.80;97367.00;;;;5035558;28;20217;-86
2022/03/26 04:44:51;;;;;;;19.07;13.07;;;8.70;50.70;8.70;97365.00;;;;5054659;28;20278;-86
2022/03/26 04:47:23;;;;;;;20.70;12.60;;;8.70;50.70;8.70;97369.00;;;;5050603;28;20221;-87
2022/03/26 04:49:50;;;;;;;20.47;13.20;;;8.70;50.70;8.70;97365.00;;;;5035719;28;20185;-86
2022/03/26 04:52:17;;;;;;;22.60;12.43;;;8.60;50.70;8.60;97364.00;;;;5035722;28;20284;-86
2022/03/26 04:54:46;;;;;;;21.43;13.63;;;8.60;50.80;8.60;97357.00;;;;5035622;28;20300;-87
2022/03/26 04:57:15;;;;;;;20.87;13.63;;;8.60;50.90;8.60;97364.00;;;;5054255;28;20196;-87
2022/03/26 04:59:44;;;;;;;21.00;14.07;;;8.50;51.10;8.60;97366.00;;;;5052008;28;20231;-87
2022/03/26 05:02:12;;;;;;;21.30;12.97;;;8.50;51.10;8.60;97366.00;;;;5049495;28;20247;-86
2022/03/26 05:04:39;;;;;;;20.53;13.30;;;8.50;51.10;8.60;97369.00;;;;5069415;28;20224;-86
2022/03/26 05:09:47;;;;;;;20.53;13.47;;;8.40;51.10;8.50;97365.00;;;;5048744;28;20243;-86
2022/03/26 05:12:17;;;;;;;20.07;12.93;;;8.40;51.20;8.50;97367.00;;;;5034222;28;20273;-86
2022/03/26 05:14:44;;;;;;;21.17;13.03;;;8.40;51.30;8.40;97367.00;;;;5034541;28;20225;-86
2022/03/26 05:17:12;;;;;;;20.50;12.87;;;8.40;51.30;8.40;97366.00;;;;5044094;28;20193;-86
2022/03/26 05:19:39;;;;;;;20.53;12.37;;;8.30;51.30;8.40;97367.00;;;;5055480;28;20275;-88
2022/03/26 05:22:06;;;;;;;21.73;13.70;;;8.40;51.30;8.40;97379.00;;;;5073551;28;20250;-86
2022/03/26 05:24:34;;;;;;;22.73;12.97;;;8.30;51.40;8.30;97378.00;;;;5071893;28;20644;-86
2022/03/26 05:27:01;;;;;;;22.87;12.93;;;8.30;51.60;8.30;97381.00;;;;5053355;28;20642;-86
2022/03/26 05:29:29;;;;;;;20.77;12.23;;;8.30;51.70;8.30;97386.00;;;;5053003;28;20295;-90
2022/03/26 05:31:59;;;;;;;20.37;12.83;;;8.30;51.90;8.30;97383.00;;;;5053810;28;20201;-86
2022/03/26 05:34:26;;;;;;;24.13;12.97;;;8.30;52.00;8.30;97387.00;;;;5053772;28;20224;-86
2022/03/26 05:36:53;;;;;;;19.63;13.03;;;8.30;52.00;8.30;97393.00;;;;5051863;28;20641;-89
2022/03/26 05:39:22;;;;;;;18.30;11.70;;;8.20;51.90;8.30;97393.00;;;;5053359;28;20268;-88
2022/03/26 05:41:49;;;;;;;22.17;12.80;;;8.20;51.90;8.30;97394.00;;;;5054447;28;20263;-86
2022/03/26 05:44:16;;;;;;;18.63;12.37;;;8.20;51.90;8.30;97397.00;;;;5053509;28;20311;-86
2022/03/26 05:46:44;;;;;;;22.93;13.53;;;8.20;52.10;8.30;97390.00;;;;5054369;28;20223;-87
2022/03/26 05:49:11;;;;;;;21.43;13.23;;;8.20;52.20;8.30;97401.00;;;;5053883;28;20737;-87
2022/03/26 05:51:38;;;;;;;21.53;13.57;;;8.20;52.50;8.30;97401.00;;;;5053215;28;20189;-86
2022/03/26 05:54:06;;;;;;;19.43;12.07;;;8.20;52.30;8.30;97400.00;;;;5052984;28;20300;-86
2022/03/26 05:56:36;;;;;;;22.90;12.90;;;8.20;52.50;8.30;97411.00;;;;5054364;28;20568;-86
2022/03/26 05:59:04;;;;;;;20.40;13.57;;;8.20;52.60;8.30;97410.00;;;;5054383;28;20268;-86
2022/03/26 06:04:00;;;;;;;18.57;12.80;;;8.20;52.80;8.40;97410.00;;;;4949521;29;20736;-84
2022/03/26 06:06:28;;;;;;;19.27;12.73;;;8.20;52.90;8.40;97420.00;;;;4952140;29;20234;-81
2022/03/26 06:08:55;;;;;;;19.17;12.57;;;8.30;53.00;8.40;97416.00;;;;4932903;28;20203;-81
2022/03/26 06:11:23;;;;;;;23.80;13.73;;;8.20;52.90;8.50;97425.00;;;;4921471;28;20197;-81
2022/03/26 06:13:50;;;;;;;21.70;12.60;;;8.30;53.20;8.60;97420.00;;;;4963634;23;20224;-83
2022/03/26 06:16:17;;;;;;;19.30;12.50;;;8.30;53.40;8.60;97425.00;;;;4971633;28;20199;-83
2022/03/26 06:18:44;;;;;;;18.90;12.40;;;8.40;53.40;8.70;97422.00;;;;4972619;28;20196;-83
2022/03/26 06:21:12;;;;;;;21.57;14.13;;;8.40;53.40;8.80;97427.00;;;;4972854;28;20632;-82
2022/03/26 06:23:40;;;;;;;19.70;13.13;;;8.40;53.60;8.80;97432.00;;;;5033757;28;20234;-83
2022/03/26 06:26:07;;;;;;;19.33;12.93;;;8.50;53.70;8.90;97437.00;;;;5071570;28;20661;-83
2022/03/26 06:28:34;;;;;;;21.27;13.00;;;8.50;53.70;9.00;97443.00;;;;5054442;28;20201;-83
2022/03/26 06:31:01;;;;;;;23.67;13.73;;;8.60;53.70;9.00;97436.00;;;;5054803;28;20243;-83
2022/03/26 06:33:28;;;;;;;20.70;12.90;;;8.60;53.80;9.10;97449.00;;;;5054178;28;20223;-83
2022/03/26 06:35:56;;;;;;;19.53;12.57;;;8.70;53.70;9.20;97443.00;;;;5053678;28;20197;-83
2022/03/26 06:38:28;;;;;;;22.67;13.57;;;8.80;53.70;9.20;97446.00;;;;5054367;28;20623;-83
2022/03/26 06:40:55;;;;;;;22.03;13.53;;;8.80;53.70;9.30;97447.00;;;;5053793;28;20195;-83
2022/03/26 06:43:22;;;;;;;20.50;13.47;;;8.90;53.60;9.40;97447.00;;;;5068976;28;20753;-83
2022/03/26 06:45:49;;;;;;;23.97;13.93;;;9.00;53.70;9.50;97451.00;;;;5072191;28;20204;-83
2022/03/26 06:48:16;;;;;;;20.90;13.47;;;9.10;53.70;9.60;97455.00;;;;5072352;28;20661;-83
2022/03/26 06:50:43;;;;;;;21.53;12.87;;;9.20;53.30;9.70;97458.00;;;;5072618;28;20204;-83
2022/03/26 06:53:10;;;;;;;22.30;14.00;;;9.30;53.00;9.80;97469.00;;;;5072911;28;20226;-83
2022/03/26 06:55:38;;;;;;;25.47;13.77;;;9.40;52.80;9.90;97465.00;;;;5064349;28;20197;-83
2022/03/26 06:58:06;;;;;;;21.47;13.13;;;9.50;52.80;10.00;97459.00;;;;5053026;28;20192;-83
2022/03/26 07:00:33;;;;;;;21.23;13.37;;;9.60;52.70;10.20;97467.00;;;;5063021;28;20208;-83
2022/03/26 07:03:00;;;;;;;21.93;13.63;;;9.80;52.70;10.30;97465.00;;;;5059275;28;20216;-83
2022/03/26 07:05:27;;;;;;;24.33;13.27;;;9.90;52.50;10.40;97467.00;;;;5072047;28;20223;-82
2022/03/26 07:07:54;;;;;;;22.47;13.53;;;10.10;52.30;10.60;97475.00;;;;5066582;28;20203;-83
2022/03/26 07:10:23;;;;;;;22.03;12.57;;;10.20;52.20;10.70;97467.00;;;;5072106;28;20202;-83
2022/03/26 07:12:51;;;;;;;23.57;13.23;;;10.30;52.10;10.80;97469.00;;;;5052308;28;20236;-83
2022/03/26 07:15:18;;;;;;;22.63;12.97;;;10.40;52.00;11.00;97469.00;;;;5055908;28;20188;-83
2022/03/26 07:17:45;;;;;;;21.20;12.83;;;10.50;51.80;11.10;97476.00;;;;5052455;28;20189;-84
2022/03/26 07:20:14;;;;;;;20.30;12.83;;;10.60;51.50;11.20;97477.00;;;;5061626;28;20188;-83
2022/03/26 07:22:42;;;;;;;20.77;12.27;;;10.80;51.50;11.30;97473.00;;;;5071215;28;20223;-83
2022/03/26 07:25:10;;;;;;;24.23;12.80;;;10.90;51.40;11.50;97477.00;;;;5072621;28;20204;-84
2022/03/26 07:27:39;;;;;;;21.07;12.90;;;11.00;51.40;11.60;97481.00;;;;5058403;28;20189;-84
2022/03/26 07:30:10;;;;;;;23.17;12.70;;;11.10;51.00;11.70;97491.00;;;;5061864;28;20199;-85
2022/03/26 07:32:37;;;;;;;21.80;13.47;;;11.30;50.90;11.80;97486.00;;;;5057831;28;20209;-86
2022/03/26 07:35:05;;;;;;;22.60;13.47;;;11.40;50.80;12.00;97488.00;;;;5074875;28;20287;-84
2022/03/26 07:37:32;;;;;;;23.27;13.67;;;11.50;50.50;12.10;97493.00;;;;5059067;28;20197;-85
2022/03/26 07:40:00;;;;;;;24.50;13.53;;;11.70;50.50;12.30;97494.00;;;;5064361;28;20196;-84
2022/03/26 07:42:27;;;;;;;22.20;13.67;;;11.80;50.40;12.50;97499.00;;;;5059348;28;20721;-84
2022/03/26 07:44:54;;;;;;;23.63;14.47;;;12.00;50.50;12.80;97499.00;;;;5056037;28;20200;-85
2022/03/26 07:47:22;;;;;;;24.33;14.17;;;12.20;50.40;13.00;97496.00;;;;5056163;28;20193;-84
2022/03/26 07:49:49;;;;;;;23.97;13.60;;;12.30;50.30;13.20;97509.00;;;;5055621;28;20200;-83
2022/03/26 07:52:17;;;;;;;24.07;13.53;;;12.50;50.10;13.40;97503.00;;;;5057128;28;20199;-86
2022/03/26 07:54:45;;;;;;;22.03;14.13;;;12.70;50.10;13.70;97514.00;;;;5075034;28;20200;-85
2022/03/26 07:57:12;;;;;;;22.43;13.43;;;12.90;49.80;13.90;97516.00;;;;5075956;28;20203;-84
2022/03/26 07:59:38;;;;;;;22.73;13.73;;;13.20;49.80;14.20;97512.00;;;;5074391;28;20671;-83
2022/03/26 08:02:06;;;;;;;26.17;14.93;;;13.40;49.60;14.40;97514.00;;;;5074372;28;20668;-83
2022/03/26 08:04:35;;;;;;;21.57;13.73;;;13.60;49.30;14.70;97515.00;;;;5072968;28;20223;-83
2022/03/26 08:07:02;;;;;;;24.90;14.10;;;13.80;49.20;14.90;97519.00;;;;5065358;28;20298;-84
2022/03/26 08:09:29;;;;;;;23.37;14.53;;;14.10;49.10;15.20;97528.00;;;;5070928;28;20196;-84
2022/03/26 08:11:56;;;;;;;21.33;13.70;;;14.30;48.70;15.40;97528.00;;;;5056121;28;20216;-83
2022/03/26 08:14:23;;;;;;;24.33;14.07;;;14.50;48.10;15.60;97534.00;;;;5057443;28;20231;-82
2022/03/26 08:16:50;;;;;;;20.07;13.13;;;14.70;47.70;15.80;97534.00;;;;5070557;28;20192;-83
2022/03/26 08:19:18;;;;;;;23.13;14.03;;;14.90;47.60;16.00;97542.00;;;;5071412;28;20188;-83
2022/03/26 08:21:47;;;;;;;22.47;13.27;;;15.10;47.10;16.30;97542.00;;;;5069036;28;20719;-82
2022/03/26 08:24:14;;;;;;;24.80;14.30;;;15.40;47.10;16.50;97545.00;;;;5083363;28;20297;-83
2022/03/26 08:26:41;;;;;;;20.07;12.97;;;15.60;46.60;16.70;97546.00;;;;5061774;28;20192;-85
2022/03/26 08:29:08;;;;;;;21.73;13.37;;;15.70;46.70;17.00;97548.00;;;;5067725;28;20275;-83
2022/03/26 08:31:35;;;;;;;19.33;13.27;;;16.00;46.60;17.20;97554.00;;;;5068744;28;20200;-84
2022/03/26 08:34:03;;;;;;;20.50;12.50;;;16.20;46.30;17.50;97555.00;;;;5068794;28;20216;-81
2022/03/26 08:36:31;;;;;;;20.20;13.57;;;16.40;46.30;17.90;97553.00;;;;5060160;28;20204;-80
2022/03/26 08:38:59;;;;;;;18.57;13.00;;;16.60;46.00;18.20;97551.00;;;;5072243;28;20185;-82
2022/03/26 08:41:26;;;;;;;22.37;14.13;;;16.80;45.80;18.60;97559.00;;;;5075455;28;20192;-81
2022/03/26 08:43:53;;;;;;;23.73;14.03;;;17.10;45.50;18.90;97557.00;;;;5073280;28;20303;-81
2022/03/26 08:46:21;;;;;;;20.97;14.00;;;17.30;45.30;19.30;97566.00;;;;5075117;28;20196;-81
2022/03/26 08:48:50;;;;;;;19.80;13.53;;;17.60;44.90;19.60;97566.00;;;;5069473;28;20200;-82
2022/03/26 08:51:18;;;;;;;20.87;14.03;;;17.90;45.00;19.90;97570.00;;;;5066197;28;20249;-82
2022/03/26 08:53:45;;;;;;;21.30;13.40;;;18.30;45.00;20.20;97563.00;;;;5077675;28;20227;-82
2022/03/26 08:56:14;;;;;;;18.93;11.80;;;18.60;44.60;20.40;97572.00;;;;5065178;28;20204;-82
2022/03/26 08:58:41;;;;;;;22.47;13.03;;;19.00;44.30;20.70;97578.00;;;;5069661;28;20212;-81
2022/03/26 09:01:08;;;;;;;21.50;13.90;;;19.50;43.80;21.00;97575.00;;;;5074611;28;20196;-81
2022/03/26 09:03:37;;;;;;;17.80;11.93;;;19.90;42.70;21.30;97568.00;;;;5074293;28;20278;-81
2022/03/26 09:06:07;;;;;;;18.97;13.10;;;20.40;42.60;21.60;97574.00;;;;5066549;28;20196;-81
2022/03/26 09:08:34;;;;;;;18.83;12.93;;;20.90;42.10;21.90;97583.00;;;;5074574;28;20200;-81
2022/03/26 09:11:03;;;;;;;27.67;15.30;;;21.40;41.60;22.30;97582.00;;;;5070923;28;20187;-81
2022/03/26 09:13:32;;;;;;;18.90;13.33;;;22.00;40.50;22.60;97580.00;;;;5090298;28;20314;-80
2022/03/26 09:15:59;;;;;;;19.03;12.63;;;22.50;40.10;23.00;97588.00;;;;5064032;28;20198;-81
2022/03/26 09:18:27;;;;;;;18.50;12.50;;;23.00;39.60;23.30;97581.00;;;;5071389;28;20192;-81
2022/03/26 09:20:54;;;;;;;23.93;13.30;;;23.40;39.00;23.60;97582.00;;;;5095882;28;20213;-80
2022/03/26 09:23:22;;;;;;;20.03;13.00;;;23.90;38.50;23.90;97580.00;;;;5086996;28;20225;-81
2022/03/26 09:25:49;;;;;;;18.87;12.33;;;24.30;37.20;24.20;97579.00;;;;5088147;28;20192;-80
2022/03/26 09:28:16;;;;;;;19.47;13.33;;;24.70;36.60;24.40;97577.00;;;;5055217;28;20196;-81
2022/03/26 09:30:45;;;;;;;18.17;12.57;;;25.00;36.10;24.70;97572.00;;;;5059619;28;20205;-81
2022/03/26 09:33:12;;;;;;;16.70;12.10;;;25.40;35.40;24.90;97575.00;;;;5059293;28;20212;-81
2022/03/26 09:35:39;;;;;;;17.83;14.23;;;25.60;34.70;25.10;97575.00;;;;5054930;28;20189;-81
2022/03/26 09:38:06;;;;;;;17.17;13.27;;;25.80;33.60;25.30;97579.00;;;;5066330;28;20245;-81
2022/03/26 09:40:34;;;;;;;18.50;12.87;;;26.10;33.90;25.40;97576.00;;;;5062637;28;20188;-82
2022/03/26 09:43:03;;;;;;;16.80;12.20;;;26.30;33.60;25.60;97583.00;;;;5065442;28;20224;-81
2022/03/26 09:45:30;;;;;;;17.10;12.53;;;26.40;33.10;25.80;97582.00;;;;5057378;28;20216;-81
2022/03/26 09:47:58;;;;;;;18.17;12.40;;;26.60;32.80;25.90;97587.00;;;;5063471;28;20191;-81
2022/03/26 09:50:25;;;;;;;18.50;12.40;;;26.70;32.70;26.00;97581.00;;;;5073204;28;20203;-81
2022/03/26 09:52:57;;;;;;;18.57;12.83;;;26.70;32.30;26.10;97577.00;;;;5072309;28;20218;-81
2022/03/26 09:55:25;;;;;;;17.27;12.73;;;26.70;32.20;26.10;97573.00;;;;5056453;28;20197;-80
2022/03/26 09:57:53;;;;;;;21.77;13.67;;;26.60;31.80;26.10;97579.00;;;;5063149;28;20203;-80
2022/03/26 10:00:20;;;;;;;20.50;13.97;;;26.60;31.50;26.10;97578.00;;;;5054962;28;20201;-81
2022/03/26 10:02:47;;;;;;;17.77;13.03;;;26.50;31.10;26.10;97578.00;;;;5061463;28;20706;-80
2022/03/26 10:05:31;;;;;;;18.17;12.17;;;26.50;30.80;26.10;97575.00;;;;5071916;28;20212;-81
2022/03/26 10:07:58;;;;;;;19.07;12.77;;;26.40;30.70;26.10;97568.00;;;;5057262;28;20192;-81
2022/03/26 10:10:26;;;;;;;18.77;13.37;;;26.30;30.80;26.10;97570.00;;;;5062090;28;20649;-81
2022/03/26 10:12:54;;;;;;;15.93;12.40;;;26.30;30.50;26.10;97570.00;;;;5054880;28;20314;-81
2022/03/26 10:15:21;;;;;;;17.67;13.10;;;26.40;31.00;26.10;97568.00;;;;5055041;28;20196;-82
2022/03/26 10:17:49;;;;;;;19.73;13.03;;;26.40;30.70;26.20;97577.00;;;;5053864;28;20196;-81
2022/03/26 10:20:16;;;;;;;17.13;12.77;;;26.50;31.00;26.20;97575.00;;;;5058727;28;20219;-82
2022/03/26 10:22:48;;;;;;;17.67;12.40;;;26.60;30.50;26.20;97573.00;;;;5061467;28;20217;-82
2022/03/26 10:25:18;;;;;;;16.67;12.27;;;26.60;30.10;26.20;97572.00;;;;5066848;28;20219;-83
2022/03/26 10:27:47;;;;;;;16.30;11.87;;;26.80;30.40;26.20;97565.00;;;;5065838;28;20196;-83
2022/03/26 10:30:16;;;;;;;21.00;13.17;;;26.90;30.20;26.20;97562.00;;;;5056492;28;20196;-83
2022/03/26 10:32:45;;;;;;;19.87;13.87;;;27.00;30.20;26.30;97559.00;;;;5056227;28;20208;-83
2022/03/26 10:35:20;;;;;;;17.27;12.60;;;27.00;29.60;26.30;97558.00;;;;5056100;28;20674;-83
2022/03/26 10:37:53;;;;;;;17.47;12.57;;;27.20;29.70;26.30;97556.00;;;;5059733;28;20218;-83
2022/03/26 10:40:29;;;;;;;17.37;13.00;;;27.20;29.60;26.30;97556.00;;;;5058234;28;20192;-83
2022/03/26 10:43:04;;;;;;;17.33;12.83;;;27.30;29.50;26.30;97550.00;;;;5064474;28;20212;-83
2022/03/26 10:45:34;;;;;;;18.07;13.40;;;27.40;29.70;26.40;97560.00;;;;5063758;28;20268;-81
2022/03/26 10:48:08;;;;;;;19.27;13.57;;;27.40;29.50;26.40;97551.00;;;;5063599;28;20629;-82
2022/03/26 10:50:36;;;;;;;20.30;13.97;;;27.40;29.40;26.40;97554.00;;;;5061887;28;20206;-82
2022/03/26 10:53:11;;;;;;;16.20;12.23;;;27.30;29.00;26.40;97551.00;;;;5054003;28;20217;-82
2022/03/26 10:55:43;;;;;;;19.40;13.00;;;27.20;28.90;26.30;97548.00;;;;5055314;28;20196;-82
2022/03/26 10:58:11;;;;;;;17.77;12.33;;;27.10;28.80;26.20;97546.00;;;;5055935;28;20247;-82